Time;durP1;ratioP1;P1;durP2;ratioP2;P2;SDS_P1;SDS_P2;PMS_P1;PMS_P2;Temp;Humidity;BMP_temperature;BMP_pressure;BME280_temperature;BME280_humidity;BME280_pressure;Samples;Min_cycle;Max_cycle;Signal;HPM_P1;HPM_P2
2022/11/05 00:10:19;;;;;;;2.13;1.80;;;6.30;99.90;;;;;;5030154;28;20233;-84
2022/11/05 00:18:14;;;;;;;2.63;2.03;;;6.50;99.90;;;;;;5029036;28;20214;-85
2022/11/05 00:20:43;;;;;;;2.28;2.08;;;6.50;99.80;;;;;;5032024;28;20226;-84
2022/11/05 00:25:59;;;;;;;2.90;2.45;;;6.60;99.70;;;;;;5022840;28;20214;-85
2022/11/05 00:28:29;;;;;;;3.35;2.40;;;6.50;99.90;;;;;;5022976;28;20202;-84
2022/11/05 00:31:01;;;;;;;2.97;2.45;;;6.40;99.90;;;;;;5030156;28;20689;-84
2022/11/05 00:33:38;;;;;;;2.63;2.28;;;6.40;99.90;;;;;;5032371;28;20298;-85
2022/11/05 00:36:09;;;;;;;3.40;2.40;;;6.40;99.90;;;;;;5030500;28;20218;-85
2022/11/05 00:38:38;;;;;;;2.40;2.03;;;6.40;99.90;;;;;;5031727;28;20690;-84
2022/11/05 00:41:05;;;;;;;2.60;2.20;;;6.40;99.90;;;;;;5028788;28;20281;-84
2022/11/05 00:46:36;;;;;;;5.45;2.28;;;6.30;99.90;;;;;;5028871;28;20654;-85
2022/11/05 00:52:54;;;;;;;3.00;2.10;;;6.40;99.90;;;;;;5030551;28;20222;-85
2022/11/05 00:54:43;;;;;;;3.13;2.40;;;6.40;99.90;;;;;;5019372;28;20199;-85
2022/11/05 00:57:10;;;;;;;2.63;2.10;;;6.50;99.90;;;;;;5025618;28;20735;-86
2022/11/05 00:59:38;;;;;;;2.30;2.03;;;6.50;99.80;;;;;;5023747;28;20238;-84
2022/11/05 01:02:08;;;;;;;2.85;2.35;;;6.50;99.80;;;;;;5026308;28;20296;-85
2022/11/05 01:04:35;;;;;;;2.65;2.08;;;6.40;99.90;;;;;;5022243;28;20219;-84
2022/11/05 01:07:03;;;;;;;2.65;1.92;;;6.40;99.90;;;;;;5020242;28;20215;-85
2022/11/05 01:09:30;;;;;;;2.88;2.08;;;6.50;99.90;;;;;;5024969;28;20252;-85
2022/11/05 01:11:57;;;;;;;2.40;2.20;;;6.40;99.90;;;;;;5027574;28;20282;-85
2022/11/05 01:14:24;;;;;;;2.83;2.20;;;6.40;99.90;;;;;;5026620;28;20215;-86
2022/11/05 01:16:51;;;;;;;2.10;1.90;;;6.40;99.90;;;;;;5030845;28;20329;-85
2022/11/05 01:19:18;;;;;;;2.97;2.30;;;6.30;99.90;;;;;;5014067;28;20362;-85
2022/11/05 01:21:44;;;;;;;2.40;2.20;;;6.30;99.90;;;;;;5022761;28;20357;-85
2022/11/05 01:24:13;;;;;;;2.37;2.17;;;6.20;99.90;;;;;;5024326;28;20241;-85
2022/11/05 01:26:40;;;;;;;2.03;1.83;;;6.10;99.90;;;;;;5025134;28;20197;-85
2022/11/05 01:29:07;;;;;;;3.40;2.13;;;6.10;99.90;;;;;;5028081;28;20310;-85
2022/11/05 01:31:34;;;;;;;1.97;1.77;;;6.10;99.90;;;;;;5022236;28;20293;-85
2022/11/05 01:34:01;;;;;;;2.40;2.20;;;6.10;99.90;;;;;;5019626;28;20229;-84
2022/11/05 01:36:28;;;;;;;2.77;2.30;;;6.10;99.90;;;;;;5025581;28;20230;-84
2022/11/05 01:38:55;;;;;;;2.00;1.80;;;6.00;99.90;;;;;;5024161;28;20207;-84
2022/11/05 01:41:24;;;;;;;2.43;2.20;;;6.00;99.90;;;;;;5030158;28;20210;-85
2022/11/05 01:43:53;;;;;;;3.37;2.00;;;6.10;99.90;;;;;;5029184;28;20234;-84
2022/11/05 01:46:23;;;;;;;3.00;2.00;;;6.20;99.90;;;;;;5026769;28;20214;-84
2022/11/05 01:48:52;;;;;;;2.80;2.20;;;6.20;99.90;;;;;;5025750;28;20268;-85
2022/11/05 01:51:22;;;;;;;2.83;2.23;;;6.20;99.90;;;;;;5024113;28;20202;-84
2022/11/05 01:53:54;;;;;;;2.10;1.90;;;6.10;99.90;;;;;;5025789;28;20235;-85
2022/11/05 01:56:26;;;;;;;2.40;2.20;;;6.20;99.90;;;;;;5030263;28;20290;-85
2022/11/05 02:01:44;;;;;;;3.57;3.07;;;6.30;99.90;;;;;;5025116;28;20209;-85
2022/11/05 02:04:17;;;;;;;4.07;2.60;;;6.40;99.90;;;;;;5025769;28;20241;-85
2022/11/05 02:06:45;;;;;;;2.67;2.10;;;6.50;99.90;;;;;;5025765;28;20203;-84
2022/11/05 02:09:17;;;;;;;2.93;2.17;;;6.40;99.90;;;;;;5018717;28;20266;-84
2022/11/05 02:11:46;;;;;;;2.42;2.00;;;6.30;99.90;;;;;;5016224;28;20204;-85
2022/11/05 02:14:13;;;;;;;3.77;2.20;;;6.40;99.90;;;;;;5023112;28;20648;-85
2022/11/05 02:16:46;;;;;;;4.00;2.37;;;6.40;99.90;;;;;;5028852;28;20221;-85
2022/11/05 02:19:38;;;;;;;3.00;2.20;;;6.30;99.90;;;;;;5024420;28;20334;-85
2022/11/05 02:22:33;;;;;;;3.07;2.03;;;6.20;99.90;;;;;;5024426;28;20224;-85
2022/11/05 02:25:20;;;;;;;2.97;2.07;;;6.10;99.90;;;;;;5026848;28;20309;-85
2022/11/05 02:28:20;;;;;;;3.57;2.10;;;6.10;99.90;;;;;;5015973;28;20238;-85
2022/11/05 02:30:53;;;;;;;2.57;2.00;;;6.10;99.90;;;;;;5017343;28;20225;-85
2022/11/05 02:33:39;;;;;;;1.90;1.80;;;5.90;99.90;;;;;;5018079;28;20671;-85
2022/11/05 02:36:30;;;;;;;3.97;2.20;;;5.80;99.90;;;;;;5014821;28;20246;-84
2022/11/05 02:39:11;;;;;;;2.10;1.90;;;5.70;99.90;;;;;;5022214;28;20202;-84
2022/11/05 02:41:45;;;;;;;3.50;2.50;;;5.60;99.90;;;;;;5018049;28;20206;-84
2022/11/05 02:44:22;;;;;;;2.10;1.90;;;5.60;99.90;;;;;;5014895;28;20314;-84
2022/11/05 02:46:57;;;;;;;2.83;2.13;;;5.50;99.90;;;;;;5024046;28;20577;-84
2022/11/05 02:49:34;;;;;;;2.60;2.17;;;5.50;99.90;;;;;;5022301;28;20210;-85
2022/11/05 02:52:04;;;;;;;3.10;2.17;;;5.40;99.90;;;;;;5027594;28;20233;-85
2022/11/05 02:54:37;;;;;;;2.20;2.00;;;5.30;99.90;;;;;;5029283;28;20210;-86
2022/11/05 02:57:04;;;;;;;5.07;2.00;;;5.40;99.90;;;;;;5021927;28;20207;-85
2022/11/05 02:59:31;;;;;;;2.57;2.10;;;5.40;99.90;;;;;;5027631;28;20211;-84
2022/11/05 03:02:02;;;;;;;4.73;2.20;;;5.30;99.90;;;;;;5021679;28;20293;-84
2022/11/05 03:04:31;;;;;;;2.53;1.90;;;5.40;99.90;;;;;;5025102;28;20250;-85
2022/11/05 03:07:21;;;;;;;2.37;2.00;;;5.40;99.90;;;;;;5023687;28;20206;-85
2022/11/05 03:10:19;;;;;;;3.10;2.40;;;5.40;99.90;;;;;;4944618;28;20400;-85
2022/11/05 03:12:58;;;;;;;2.53;2.20;;;5.50;99.90;;;;;;4943359;28;20331;-84
2022/11/05 03:15:40;;;;;;;3.63;2.30;;;5.50;99.90;;;;;;4949400;29;20240;-85
2022/11/05 03:18:14;;;;;;;2.70;2.10;;;5.60;99.90;;;;;;4944494;28;20217;-84
2022/11/05 03:20:48;;;;;;;2.30;1.87;;;5.70;99.90;;;;;;4943872;28;20696;-85
2022/11/05 03:23:22;;;;;;;2.40;1.90;;;5.70;99.90;;;;;;4944053;29;20335;-86
2022/11/05 03:25:55;;;;;;;3.23;1.90;;;5.90;99.90;;;;;;4944317;29;20257;-84
2022/11/05 03:28:25;;;;;;;2.10;1.90;;;6.00;99.90;;;;;;4947527;28;20249;-84
2022/11/05 03:30:53;;;;;;;1.80;1.70;;;6.10;99.90;;;;;;4945878;29;20705;-85
2022/11/05 03:33:27;;;;;;;1.60;1.50;;;6.30;99.90;;;;;;4943836;29;20322;-84
2022/11/05 03:35:56;;;;;;;3.33;1.83;;;6.30;99.90;;;;;;4947925;28;20228;-84
2022/11/05 03:38:28;;;;;;;3.97;2.03;;;6.30;99.90;;;;;;4945340;28;20206;-84
2022/11/05 03:40:58;;;;;;;2.28;2.03;;;6.30;99.90;;;;;;4940195;29;20319;-84
2022/11/05 03:43:35;;;;;;;2.45;1.90;;;6.30;99.90;;;;;;4937509;29;20210;-84
2022/11/05 03:46:05;;;;;;;2.10;1.90;;;6.40;99.90;;;;;;4947744;28;20312;-84
2022/11/05 03:48:38;;;;;;;2.20;2.00;;;6.40;99.90;;;;;;5027147;28;20285;-84
2022/11/05 03:51:11;;;;;;;2.77;1.97;;;6.40;99.90;;;;;;5025820;28;20332;-85
2022/11/05 03:53:44;;;;;;;2.67;2.03;;;6.50;99.90;;;;;;5021600;28;20639;-85
2022/11/05 03:56:18;;;;;;;4.22;2.08;;;6.40;99.90;;;;;;5030128;28;20592;-84
2022/11/05 03:58:46;;;;;;;3.55;1.98;;;6.40;99.90;;;;;;5023978;28;20215;-84
2022/11/05 04:01:13;;;;;;;2.10;1.90;;;6.40;99.90;;;;;;5030200;28;20234;-84
2022/11/05 04:03:42;;;;;;;3.03;2.13;;;6.40;99.90;;;;;;5032583;28;20234;-84
2022/11/05 04:14:25;;;;;;;4.80;1.90;;;6.50;99.90;;;;;;5021847;28;20205;-84
2022/11/05 04:17:08;;;;;;;2.90;2.05;;;6.50;99.90;;;;;;5032234;28;20218;-84
2022/11/05 04:25:09;;;;;;;2.88;1.90;;;6.50;99.90;;;;;;5025505;28;20740;-84
2022/11/05 04:27:36;;;;;;;2.80;2.45;;;6.50;99.90;;;;;;5018190;28;20291;-85
2022/11/05 04:30:20;;;;;;;2.10;1.83;;;6.50;99.90;;;;;;5031551;28;20286;-85
2022/11/05 04:33:01;;;;;;;3.60;2.17;;;6.60;99.90;;;;;;5029572;28;20202;-84
2022/11/05 04:35:31;;;;;;;2.55;2.35;;;6.60;99.90;;;;;;5019475;28;20297;-84
2022/11/05 04:37:58;;;;;;;2.95;2.10;;;6.60;99.90;;;;;;5031725;28;20297;-84
2022/11/05 04:40:26;;;;;;;4.53;2.40;;;6.50;99.90;;;;;;5028410;28;20215;-84
2022/11/05 04:42:54;;;;;;;2.75;2.38;;;6.50;99.90;;;;;;5026539;28;20221;-84
2022/11/05 04:45:22;;;;;;;3.63;2.45;;;6.50;99.90;;;;;;5027172;28;20226;-84
2022/11/05 04:47:49;;;;;;;2.72;2.20;;;6.50;99.90;;;;;;5032347;28;20206;-84
2022/11/05 04:50:16;;;;;;;3.80;2.67;;;6.60;99.90;;;;;;5023590;28;20196;-84
2022/11/05 04:52:44;;;;;;;3.95;2.53;;;6.60;99.90;;;;;;5028860;28;20233;-84
2022/11/05 04:55:11;;;;;;;4.93;2.40;;;6.60;99.90;;;;;;5034524;28;20214;-85
2022/11/05 04:57:38;;;;;;;3.15;2.55;;;6.60;99.90;;;;;;5028966;28;20636;-84
2022/11/05 05:00:07;;;;;;;3.72;2.78;;;6.60;99.90;;;;;;5031161;28;20272;-84
2022/11/05 05:02:35;;;;;;;3.22;2.55;;;6.70;99.90;;;;;;5024103;28;20254;-84
2022/11/05 05:05:01;;;;;;;3.65;2.65;;;6.70;99.90;;;;;;5028893;28;20386;-85
2022/11/05 05:07:28;;;;;;;3.25;2.85;;;6.70;99.90;;;;;;5026548;28;20269;-85
2022/11/05 05:09:59;;;;;;;3.20;2.50;;;6.80;99.90;;;;;;5024658;28;20240;-85
2022/11/05 05:12:26;;;;;;;4.07;2.90;;;6.90;99.90;;;;;;5024224;28;20259;-84
2022/11/05 05:14:53;;;;;;;4.95;2.50;;;6.90;99.90;;;;;;5028396;28;20221;-84
2022/11/05 05:17:20;;;;;;;2.92;2.67;;;6.90;99.90;;;;;;5026711;28;20203;-84
2022/11/05 05:22:31;;;;;;;2.90;2.60;;;6.90;99.90;;;;;;5025458;28;20221;-84
2022/11/05 05:24:59;;;;;;;4.25;2.80;;;6.80;99.90;;;;;;5031348;28;20694;-84
2022/11/05 05:27:28;;;;;;;3.35;2.80;;;6.80;99.90;;;;;;5024864;28;20211;-85
2022/11/05 05:29:55;;;;;;;4.40;2.78;;;6.90;99.90;;;;;;5024154;28;20234;-84
2022/11/05 05:32:22;;;;;;;4.00;2.65;;;6.90;99.90;;;;;;5031055;28;20217;-84
2022/11/05 05:34:49;;;;;;;2.70;2.50;;;6.90;99.90;;;;;;5029057;28;20218;-84
2022/11/05 05:37:17;;;;;;;5.07;2.67;;;6.90;99.90;;;;;;5031059;28;20663;-84
2022/11/05 05:39:44;;;;;;;3.65;2.60;;;6.90;99.90;;;;;;5023673;28;20306;-84
2022/11/05 05:42:13;;;;;;;4.22;3.00;;;6.90;99.90;;;;;;5020734;28;20207;-85
2022/11/05 05:44:40;;;;;;;3.00;2.70;;;6.90;99.90;;;;;;5022236;28;20667;-85
2022/11/05 05:47:07;;;;;;;5.18;2.75;;;7.00;99.90;;;;;;5026581;28;20588;-85
2022/11/05 05:49:34;;;;;;;4.20;3.13;;;6.90;99.90;;;;;;5023702;28;20207;-85
2022/11/05 05:52:01;;;;;;;4.20;2.60;;;7.00;99.90;;;;;;5029412;28;20202;-85
2022/11/05 05:54:28;;;;;;;5.65;2.70;;;6.90;99.90;;;;;;5028137;28;20213;-84
2022/11/05 05:56:56;;;;;;;3.80;3.00;;;6.90;99.90;;;;;;5028768;28;20686;-84
2022/11/05 05:59:25;;;;;;;3.53;2.90;;;6.90;99.90;;;;;;5024394;28;20632;-84
2022/11/05 06:01:52;;;;;;;5.32;2.92;;;7.00;99.90;;;;;;5023914;28;20744;-85
2022/11/05 06:04:19;;;;;;;3.45;2.70;;;7.00;99.90;;;;;;5028451;28;20222;-84
2022/11/05 06:06:47;;;;;;;3.15;2.75;;;7.00;99.90;;;;;;5032416;28;20236;-84
2022/11/05 06:09:14;;;;;;;3.15;2.70;;;7.00;99.90;;;;;;5025896;28;20289;-85
2022/11/05 06:11:41;;;;;;;4.07;3.03;;;7.00;99.90;;;;;;5020750;28;20582;-86
2022/11/05 06:14:11;;;;;;;2.90;2.67;;;7.00;99.90;;;;;;5024403;28;20301;-86
2022/11/05 06:16:40;;;;;;;5.30;2.88;;;7.00;99.90;;;;;;5011384;28;20210;-86
2022/11/05 06:19:07;;;;;;;3.42;2.97;;;7.00;99.90;;;;;;5029500;28;20281;-86
2022/11/05 06:21:34;;;;;;;4.03;3.20;;;7.00;99.90;;;;;;5027582;28;20227;-86
2022/11/05 06:24:02;;;;;;;3.95;3.00;;;7.00;99.90;;;;;;5028612;28;20210;-86
2022/11/05 06:26:29;;;;;;;4.63;3.13;;;7.00;99.90;;;;;;5019593;28;20234;-86
2022/11/05 06:28:56;;;;;;;5.57;3.17;;;7.00;99.90;;;;;;5026404;28;20211;-86
2022/11/05 06:31:23;;;;;;;5.03;3.30;;;7.10;99.90;;;;;;5029163;28;20214;-86
2022/11/05 06:33:51;;;;;;;4.00;3.20;;;7.20;99.90;;;;;;5027274;28;20285;-86
2022/11/05 06:36:20;;;;;;;3.38;2.95;;;7.20;99.90;;;;;;5025550;28;20222;-86
2022/11/05 06:38:47;;;;;;;3.92;3.33;;;7.20;99.90;;;;;;5030074;28;20199;-86
2022/11/05 06:41:14;;;;;;;5.38;3.40;;;7.20;99.90;;;;;;5026623;28;20297;-86
2022/11/05 06:43:41;;;;;;;3.92;3.25;;;7.20;99.90;;;;;;5024330;28;20210;-87
2022/11/05 06:46:09;;;;;;;4.15;3.50;;;7.30;99.90;;;;;;5027590;28;20232;-86
2022/11/05 06:48:36;;;;;;;4.13;3.40;;;7.30;99.90;;;;;;5020668;28;20209;-86
2022/11/05 06:51:06;;;;;;;4.75;3.22;;;7.30;99.90;;;;;;5022940;28;20230;-87
2022/11/05 06:53:33;;;;;;;3.78;3.47;;;7.30;99.90;;;;;;5029193;28;20290;-86
2022/11/05 06:56:03;;;;;;;3.63;3.30;;;7.40;99.90;;;;;;5023194;28;20299;-86
2022/11/05 06:58:30;;;;;;;4.85;4.20;;;7.50;99.90;;;;;;5028201;28;20244;-86
2022/11/05 07:01:00;;;;;;;5.05;3.95;;;7.50;99.90;;;;;;5013589;28;20207;-86
2022/11/05 07:03:27;;;;;;;5.28;3.72;;;7.40;99.90;;;;;;5027509;28;20282;-87
2022/11/05 07:05:54;;;;;;;4.63;3.67;;;7.50;99.90;;;;;;5028745;28;20250;-86
2022/11/05 07:08:23;;;;;;;5.85;3.45;;;7.50;99.90;;;;;;5029443;28;20289;-86
2022/11/05 07:10:50;;;;;;;3.97;3.58;;;7.60;99.90;;;;;;5027573;28;20221;-86
2022/11/05 07:13:17;;;;;;;4.05;3.58;;;7.70;99.90;;;;;;5028638;28;20287;-86
2022/11/05 07:15:44;;;;;;;5.88;3.47;;;7.80;99.90;;;;;;5028059;28;20209;-86
2022/11/05 07:18:11;;;;;;;4.00;3.30;;;7.80;99.90;;;;;;5028864;28;20289;-86
2022/11/05 07:20:38;;;;;;;3.50;3.20;;;7.80;99.90;;;;;;5028149;28;20226;-87
2022/11/05 07:23:06;;;;;;;3.35;3.00;;;7.80;99.90;;;;;;5026593;28;20202;-86
2022/11/05 07:25:35;;;;;;;4.30;3.28;;;7.80;99.90;;;;;;5024753;28;20584;-86
2022/11/05 07:28:02;;;;;;;3.92;3.30;;;7.90;99.90;;;;;;5032938;28;20297;-85
2022/11/05 07:30:30;;;;;;;4.15;3.47;;;7.90;99.90;;;;;;5046241;28;20234;-85
2022/11/05 07:32:57;;;;;;;3.67;3.33;;;8.00;99.90;;;;;;5036599;28;20294;-86
2022/11/05 07:35:25;;;;;;;3.15;2.85;;;8.00;99.90;;;;;;5034100;28;20215;-86
2022/11/05 07:38:02;;;;;;;4.30;3.20;;;8.00;99.90;;;;;;5032333;28;20298;-86
2022/11/05 07:40:30;;;;;;;3.90;3.47;;;8.10;99.90;;;;;;5030999;28;20440;-86
2022/11/05 07:43:01;;;;;;;4.03;3.22;;;8.10;99.90;;;;;;5037264;28;20219;-86
2022/11/05 07:45:30;;;;;;;4.07;3.33;;;8.10;99.90;;;;;;5047121;28;20235;-85
2022/11/05 07:47:59;;;;;;;3.80;3.50;;;8.20;99.90;;;;;;5034794;28;20238;-85
2022/11/05 07:50:27;;;;;;;4.10;3.20;;;8.30;99.90;;;;;;5047746;28;20681;-85
2022/11/05 07:52:59;;;;;;;3.55;3.25;;;8.50;99.90;;;;;;5021708;28;20302;-86
2022/11/05 07:55:26;;;;;;;3.65;3.35;;;8.60;99.90;;;;;;5025751;28;20751;-85
2022/11/05 07:58:04;;;;;;;4.13;3.45;;;8.70;99.90;;;;;;5029619;28;20246;-85
2022/11/05 08:00:32;;;;;;;5.88;3.63;;;8.90;99.90;;;;;;5019572;28;20889;-86
2022/11/05 08:03:01;;;;;;;3.70;3.40;;;9.00;99.90;;;;;;5025201;28;20211;-86
2022/11/05 08:05:35;;;;;;;4.10;3.70;;;9.10;99.90;;;;;;5021884;28;20303;-86
2022/11/05 08:08:02;;;;;;;4.00;3.60;;;9.20;99.90;;;;;;5031435;28;20220;-85
2022/11/05 08:10:29;;;;;;;4.03;3.72;;;9.50;99.90;;;;;;5032468;28;20217;-85
2022/11/05 08:12:56;;;;;;;4.28;3.88;;;9.40;99.80;;;;;;5018976;28;20290;-85
2022/11/05 08:15:25;;;;;;;4.45;4.05;;;9.50;99.90;;;;;;5026196;28;20237;-85
2022/11/05 08:17:59;;;;;;;4.60;4.07;;;9.70;99.70;;;;;;5023539;28;20202;-85
2022/11/05 08:20:39;;;;;;;4.93;4.25;;;9.80;99.40;;;;;;5032430;28;20304;-85
2022/11/05 08:23:08;;;;;;;5.03;4.10;;;9.80;99.20;;;;;;5028265;28;20309;-85
2022/11/05 08:25:35;;;;;;;4.47;3.92;;;9.90;99.30;;;;;;5026380;28;20230;-85
2022/11/05 08:28:05;;;;;;;4.95;4.40;;;9.90;99.20;;;;;;5014313;28;20234;-85
2022/11/05 08:30:34;;;;;;;5.00;4.50;;;9.80;99.00;;;;;;5027901;28;20210;-85
2022/11/05 08:33:02;;;;;;;4.93;4.43;;;9.70;99.60;;;;;;5030091;28;20217;-86
2022/11/05 08:35:30;;;;;;;5.15;4.47;;;9.60;99.90;;;;;;5026880;28;20305;-85
2022/11/05 08:38:05;;;;;;;7.47;4.90;;;9.50;99.90;;;;;;5027895;28;20290;-85
2022/11/05 08:40:35;;;;;;;5.05;4.55;;;9.40;99.90;;;;;;5025437;28;20202;-86
2022/11/05 08:43:03;;;;;;;5.40;4.80;;;9.50;99.90;;;;;;5026855;28;20302;-85
2022/11/05 08:45:30;;;;;;;5.60;5.03;;;9.60;99.90;;;;;;5031755;28;20211;-85
2022/11/05 08:48:02;;;;;;;5.57;5.00;;;9.60;99.90;;;;;;5023643;28;21720;-86
2022/11/05 08:50:33;;;;;;;5.88;5.22;;;9.50;99.80;;;;;;5022422;28;20638;-85
2022/11/05 08:53:00;;;;;;;6.90;5.53;;;9.40;99.90;;;;;;5022713;28;20286;-86
2022/11/05 08:55:32;;;;;;;6.88;5.78;;;9.40;99.90;;;;;;5032521;28;20257;-86
2022/11/05 08:58:04;;;;;;;7.13;5.68;;;9.40;99.90;;;;;;5032467;28;20202;-85
2022/11/05 09:00:34;;;;;;;6.25;5.65;;;9.30;99.90;;;;;;5015552;28;20337;-85
2022/11/05 09:03:04;;;;;;;41.47;30.95;;;9.50;99.90;;;;;;5023364;28;20231;-86
2022/11/05 09:05:36;;;;;;;7.32;6.22;;;9.50;99.90;;;;;;5030635;28;20209;-86
2022/11/05 09:08:04;;;;;;;7.28;5.95;;;9.60;99.90;;;;;;5032148;28;20207;-85
2022/11/05 09:10:30;;;;;;;8.35;5.85;;;9.60;99.90;;;;;;5024078;28;20298;-85
2022/11/05 09:12:58;;;;;;;6.70;5.78;;;9.80;99.90;;;;;;5030223;28;20206;-85
2022/11/05 09:15:25;;;;;;;7.30;5.60;;;9.80;99.60;;;;;;5028875;28;20210;-85
2022/11/05 09:17:52;;;;;;;6.30;5.55;;;9.90;98.90;;;;;;5029413;28;20289;-85
2022/11/05 09:20:20;;;;;;;5.95;5.35;;;9.80;98.70;;;;;;5026053;28;20298;-85
2022/11/05 09:22:50;;;;;;;7.00;5.82;;;9.80;99.20;;;;;;5028984;28;20288;-85
2022/11/05 09:25:17;;;;;;;6.63;5.53;;;9.80;99.00;;;;;;5024949;28;20216;-85
2022/11/05 09:27:50;;;;;;;5.50;4.55;;;9.80;99.30;;;;;;5024904;28;20238;-86
2022/11/05 09:30:17;;;;;;;5.65;4.22;;;9.80;98.40;;;;;;5019218;28;20734;-86
2022/11/05 09:32:44;;;;;;;4.45;4.05;;;9.70;98.70;;;;;;5024074;28;20215;-86
2022/11/05 09:35:11;;;;;;;5.25;3.80;;;9.50;99.60;;;;;;5021593;28;20278;-86
2022/11/05 09:38:03;;;;;;;4.68;3.95;;;9.40;99.90;;;;;;5024537;28;20256;-89
2022/11/05 09:40:38;;;;;;;4.43;3.95;;;9.40;99.90;;;;;;5021923;28;20310;-89
2022/11/05 09:43:06;;;;;;;4.68;3.90;;;9.50;99.90;;;;;;5023018;28;20351;-89
2022/11/05 09:45:35;;;;;;;4.28;3.55;;;9.60;99.90;;;;;;5030960;28;20285;-87
2022/11/05 09:48:08;;;;;;;3.08;2.78;;;9.70;99.90;;;;;;5025802;28;20729;-86
2022/11/05 09:50:46;;;;;;;3.30;3.00;;;9.80;99.90;;;;;;5025249;28;20967;-86
2022/11/05 09:53:35;;;;;;;3.47;2.40;;;9.90;99.50;;;;;;5029341;28;20199;-88
2022/11/05 09:56:02;;;;;;;1.90;1.80;;;9.70;99.50;;;;;;5025233;28;20210;-88
2022/11/05 09:58:39;;;;;;;1.80;1.70;;;9.70;99.30;;;;;;5031736;28;20278;-88
2022/11/05 10:01:34;;;;;;;1.40;1.30;;;9.60;99.60;;;;;;5019502;28;20710;-87
2022/11/05 10:04:38;;;;;;;1.80;1.45;;;9.50;99.70;;;;;;5033438;28;20309;-88
2022/11/05 10:13:48;;;;;;;2.58;2.13;;;10.00;99.90;;;;;;5028596;28;20610;-87
2022/11/05 10:16:26;;;;;;;18.02;13.32;;;10.50;98.80;;;;;;5027210;28;20252;-88
2022/11/05 10:18:57;;;;;;;21.40;13.00;;;10.80;98.50;;;;;;5035002;28;20281;-88
2022/11/05 10:21:24;;;;;;;21.88;18.15;;;11.30;96.30;;;;;;5016431;28;20314;-88
2022/11/05 10:23:51;;;;;;;11.65;9.82;;;11.30;95.80;;;;;;5019476;28;20215;-86
2022/11/05 10:26:27;;;;;;;9.75;8.02;;;11.10;96.00;;;;;;5031088;28;21965;-91
2022/11/05 10:31:39;;;;;;;4.65;3.42;;;10.90;95.50;;;;;;5006745;28;20247;-89
2022/11/05 10:34:10;;;;;;;28.92;23.63;;;10.70;95.90;;;;;;5005148;28;20270;-89
2022/11/05 10:36:50;;;;;;;18.75;14.52;;;10.70;96.80;;;;;;5006170;28;20605;-88
2022/11/05 10:39:27;;;;;;;2.40;1.90;;;10.70;98.20;;;;;;5006690;28;20563;-88
2022/11/05 10:42:16;;;;;;;26.88;22.30;;;10.80;96.90;;;;;;5004438;28;20207;-89
2022/11/05 10:45:01;;;;;;;3.47;3.05;;;10.90;99.10;;;;;;5004731;28;20314;-86
2022/11/05 10:48:10;;;;;;;4.63;3.45;;;11.00;99.10;;;;;;5008894;28;20318;-88
2022/11/05 10:50:38;;;;;;;2.38;2.17;;;11.40;97.80;;;;;;5009557;28;20614;-88
2022/11/05 10:59:51;;;;;;;3.08;1.90;;;12.00;91.90;;;;;;5011662;28;20190;-87
2022/11/05 11:05:41;;;;;;;2.55;2.13;;;11.20;94.60;;;;;;5016030;28;20694;-87
2022/11/05 11:08:22;;;;;;;2.55;2.35;;;10.80;95.80;;;;;;5030018;28;20632;-88
2022/11/05 11:10:52;;;;;;;2.60;2.40;;;10.60;95.90;;;;;;5020805;28;20218;-87
2022/11/05 11:13:23;;;;;;;2.33;2.13;;;10.30;97.00;;;;;;5022475;28;20286;-88
2022/11/05 11:15:51;;;;;;;3.35;2.20;;;10.30;97.60;;;;;;5026502;28;20611;-87
2022/11/05 11:18:26;;;;;;;3.45;2.53;;;10.30;97.40;;;;;;5023965;28;20333;-87
2022/11/05 11:21:12;;;;;;;2.17;2.08;;;10.30;97.90;;;;;;5024076;28;20248;-87
2022/11/05 11:23:41;;;;;;;2.25;2.05;;;10.50;97.30;;;;;;5016947;28;20199;-87
2022/11/05 11:26:10;;;;;;;4.65;2.90;;;10.70;96.20;;;;;;5021957;28;20726;-87
2022/11/05 11:28:43;;;;;;;3.30;2.80;;;10.70;96.90;;;;;;5023659;28;20629;-88
2022/11/05 11:31:17;;;;;;;2.63;2.42;;;10.70;97.00;;;;;;5023453;28;20220;-88
2022/11/05 11:33:56;;;;;;;2.35;2.15;;;10.90;97.30;;;;;;5029501;28;20619;-87
2022/11/05 11:37:02;;;;;;;2.40;2.15;;;11.20;96.50;;;;;;5027635;28;20694;-87
2022/11/05 11:39:52;;;;;;;2.38;2.17;;;11.20;94.30;;;;;;5029756;28;20282;-86
2022/11/05 11:42:23;;;;;;;2.30;1.70;;;11.20;94.40;;;;;;5028847;28;20242;-86
2022/11/05 11:44:51;;;;;;;1.88;1.77;;;11.00;95.20;;;;;;5020063;28;20298;-87
2022/11/05 11:47:45;;;;;;;1.98;1.88;;;10.90;95.90;;;;;;5029153;28;20702;-88
2022/11/05 11:50:34;;;;;;;1.98;1.88;;;10.80;95.90;;;;;;5026492;28;20297;-89
2022/11/05 11:53:29;;;;;;;1.92;1.73;;;10.70;95.90;;;;;;4973686;28;20237;-86
2022/11/05 11:56:14;;;;;;;2.33;2.13;;;10.60;95.90;;;;;;4983638;28;20229;-88
2022/11/05 11:59:00;;;;;;;1.95;1.85;;;10.60;95.90;;;;;;4986952;28;20318;-89
2022/11/05 12:02:06;;;;;;;2.40;1.70;;;10.50;96.40;;;;;;4991971;28;20594;-86
2022/11/05 12:04:58;;;;;;;2.25;1.80;;;10.70;95.50;;;;;;4997555;28;20211;-88
2022/11/05 12:07:37;;;;;;;2.63;2.00;;;10.70;95.90;;;;;;4989305;28;20704;-88
2022/11/05 12:10:26;;;;;;;2.33;2.10;;;10.60;95.90;;;;;;4974892;28;20223;-89
2022/11/05 12:13:35;;;;;;;2.15;1.88;;;10.60;95.40;;;;;;4991519;28;20648;-88
2022/11/05 12:16:49;;;;;;;2.22;2.00;;;10.50;94.50;;;;;;4894561;29;20294;-87
2022/11/05 12:19:46;;;;;;;2.38;2.05;;;10.30;95.70;;;;;;4835290;29;20214;-88
2022/11/05 12:22:26;;;;;;;1.90;1.80;;;10.20;95.80;;;;;;4840729;29;20297;-87
2022/11/05 12:28:36;;;;;;;2.30;2.10;;;10.10;96.90;;;;;;4839102;29;20233;-86
2022/11/05 12:31:16;;;;;;;2.17;1.98;;;10.10;97.20;;;;;;4798855;29;20305;-89
2022/11/05 12:33:57;;;;;;;2.53;2.33;;;10.10;96.60;;;;;;4802756;29;20577;-88
2022/11/05 12:36:56;;;;;;;1.90;1.80;;;10.20;96.60;;;;;;4803020;29;20211;-88
2022/11/05 12:39:43;;;;;;;2.45;2.00;;;10.20;96.90;;;;;;4801347;29;20660;-90
2022/11/05 12:42:31;;;;;;;2.45;2.25;;;10.20;97.40;;;;;;4802403;29;20215;-90
2022/11/05 12:45:14;;;;;;;2.45;2.10;;;10.10;98.40;;;;;;4803015;29;20242;-91
2022/11/05 12:48:20;;;;;;;2.58;2.38;;;10.10;98.90;;;;;;4802430;29;20784;-90
2022/11/05 12:50:53;;;;;;;2.30;2.10;;;10.10;99.00;;;;;;4803983;29;20222;-90
2022/11/05 12:53:39;;;;;;;4.10;2.20;;;10.00;98.30;;;;;;4874841;29;20313;-88
2022/11/05 12:56:37;;;;;;;2.50;2.30;;;9.90;98.90;;;;;;4912905;28;20209;-89
2022/11/05 12:59:19;;;;;;;3.40;2.17;;;9.90;99.50;;;;;;4954752;28;20228;-88
2022/11/05 13:01:50;;;;;;;2.03;1.83;;;9.80;98.90;;;;;;4948427;28;20259;-89
2022/11/05 13:04:30;;;;;;;1.95;1.85;;;9.80;98.60;;;;;;4964140;28;20292;-89
2022/11/05 13:07:02;;;;;;;1.90;1.80;;;9.70;99.00;;;;;;4954618;28;20271;-89
2022/11/05 13:09:34;;;;;;;2.30;2.10;;;9.60;99.40;;;;;;5019257;28;20218;-88
2022/11/05 13:12:07;;;;;;;2.22;2.00;;;9.60;99.40;;;;;;5021958;28;20294;-89
2022/11/05 13:14:50;;;;;;;2.20;2.00;;;9.50;99.30;;;;;;5024975;28;20619;-88
2022/11/05 13:17:24;;;;;;;2.30;2.10;;;9.40;99.50;;;;;;5029369;28;20202;-90
2022/11/05 13:20:03;;;;;;;2.35;2.15;;;9.40;99.60;;;;;;5028572;28;20210;-90
2022/11/05 13:22:39;;;;;;;2.00;1.90;;;9.40;99.50;;;;;;5029740;28;20206;-88
2022/11/05 13:25:12;;;;;;;2.45;2.00;;;9.30;99.90;;;;;;5023161;28;20621;-88
2022/11/05 13:27:56;;;;;;;1.90;1.80;;;9.20;99.90;;;;;;5025351;28;20226;-90
2022/11/05 13:30:37;;;;;;;2.08;1.80;;;9.20;99.90;;;;;;5030873;28;20286;-88
2022/11/05 13:33:13;;;;;;;2.03;1.88;;;9.20;99.80;;;;;;5029110;28;20666;-89
2022/11/05 13:38:57;;;;;;;3.00;1.90;;;9.20;99.90;;;;;;5031617;28;20874;-90
2022/11/05 13:39:08;;;;;;;2.13;1.65;;;9.20;99.90;;;;;;5033821;28;20205;-89
2022/11/05 13:41:53;;;;;;;3.15;2.00;;;9.10;99.90;;;;;;5021156;28;20689;-89
2022/11/05 13:44:38;;;;;;;2.20;2.00;;;9.20;99.90;;;;;;5029033;28;20273;-87
2022/11/05 13:51:00;;;;;;;2.53;1.70;;;9.20;99.90;;;;;;5033445;28;20198;-89
2022/11/05 13:53:51;;;;;;;2.13;1.95;;;9.30;99.90;;;;;;5027848;28;20207;-85
2022/11/05 13:57:08;;;;;;;2.35;1.80;;;9.30;99.90;;;;;;4971563;28;20299;-87
2022/11/05 14:00:03;;;;;;;3.28;1.88;;;9.60;99.90;;;;;;4971958;28;20235;-87
2022/11/05 14:05:29;;;;;;;1.70;1.60;;;9.70;99.90;;;;;;4938626;28;20217;-91
2022/11/05 14:14:22;;;;;;;5.03;1.50;;;9.60;98.60;;;;;;4968860;28;20247;-88
2022/11/05 14:16:54;;;;;;;1.60;1.50;;;9.50;98.60;;;;;;4971377;28;20294;-86
2022/11/05 14:19:59;;;;;;;1.67;1.50;;;9.50;99.20;;;;;;4967849;28;20251;-89
2022/11/05 14:23:21;;;;;;;2.13;1.50;;;9.50;99.40;;;;;;4927055;29;20226;-87
2022/11/05 14:25:58;;;;;;;1.75;1.20;;;9.50;98.70;;;;;;4923295;29;20611;-87
2022/11/05 14:29:00;;;;;;;1.67;1.58;;;9.50;98.80;;;;;;4931002;29;20233;-89
2022/11/05 14:31:33;;;;;;;1.30;1.20;;;9.50;98.60;;;;;;4920977;29;20289;-88
2022/11/05 14:34:17;;;;;;;1.38;1.27;;;9.40;98.90;;;;;;4963701;28;20205;-88
2022/11/05 14:37:12;;;;;;;1.83;1.10;;;9.40;99.40;;;;;;4982771;28;20205;-87
2022/11/05 14:40:17;;;;;;;1.50;1.40;;;9.30;99.40;;;;;;4987358;28;20204;-87
2022/11/05 14:42:53;;;;;;;1.60;1.45;;;9.20;99.40;;;;;;4980168;28;20208;-88
2022/11/05 14:45:29;;;;;;;1.42;1.33;;;9.10;99.90;;;;;;4980960;28;20196;-86
2022/11/05 14:47:59;;;;;;;2.85;1.50;;;9.10;99.90;;;;;;4971475;28;20307;-88
2022/11/05 14:50:33;;;;;;;1.42;1.27;;;9.20;99.50;;;;;;4981768;28;20674;-86